Air Resources Laboratory banner image
Air Resources Laboratory web site National Oceanic and Atmospheric Administration (NOAA)

wi metar


KAIG 110455Z AUTO 00000KT 10SM CLR 12/10 A3020 RMK AO2 T01200101=
KARV 110455Z AUTO 00000KT 10SM CLR 13/12 A3022 RMK AO2 T01260115=
KASX 110453Z AUTO 36006KT 10SM CLR 15/11 A3022 RMK AO2 SLP232 T01500106=
KATW 110455Z AUTO 04003KT 10SM BKN060 18/13 A3016 RMK AO2 P0001=
KAUW 110454Z AUTO 00000KT 10SM CLR 18/10 A3018 RMK AO2 SLP218 T01780100=
KCLI 110455Z AUTO 00000KT 10SM OVC060 17/12 A3019 RMK AO2 T01750123=
KCMY 110458Z AUTO 02003KT 10SM BKN055 20/14 A3019 RMK AO2 SLP222 T01960142 $=
KCWA 110455Z AUTO 01005KT 10SM CLR 16/10 A3020 RMK AO2=
KDLL 110455Z AUTO 03005KT 10SM OVC050 21/17 A3016 RMK AO2 T02060168=
KEAU 110456Z AUTO 00000KT 10SM CLR 16/12 A3019 RMK AO2 SLP220 T01560122=
KEFT 110455Z AUTO 28009KT 10SM CLR 22/18 A3014 RMK AO2 T02200181=
KEGV 110455Z AUTO 00000KT 10SM CLR 11/11 A3021 RMK AO2 T01100110=
KENW 110453Z AUTO 25006KT 10SM SCT049 SCT060 22/19 A3011 RMK AO2 SLP191
 T02220189=
KETB 110455Z AUTO 03009G15KT 10SM CLR 20/18 A3014 RMK AO2=
KFLD 110453Z AUTO 06010KT 10SM FEW060 22/14 A3016 RMK AO2 SLP207 T02170144=
KGRB 110453Z AUTO 06005KT 10SM FEW065 19/16 A3016 RMK AO2 SLP210 T01940156=
KHYR 110453Z AUTO 00000KT 10SM CLR 12/11 A3023 RMK AO2 SLP235 T01170106=
KISW 110454Z AUTO 03004KT 10SM CLR 20/11 A3019 RMK AO2 SLP219 T02000111=
KLNR 110456Z AUTO 00000KT 10SM FEW045 21/20 A3014 RMK AO2 SLP197 T02060200=
KLSE 110453Z AUTO 01006KT 10SM SCT050 22/15 A3016 RMK AO2 SLP204 T02220150=
KMDZ 110455Z AUTO 00000KT 10SM CLR 13/13 A3021 RMK AO2 T01260126 PWINO=
KMFI 110454Z AUTO 04005KT 10SM CLR 18/11 A3020 RMK AO2 SLP220 T01780111=
KMKE 110452Z 36006KT 10SM FEW031 BKN048 BKN075 25/18 A3010 RMK AO2 RAB0355E00
 SLP188 P0000 T02500183=
KMSN 110453Z AUTO 02005KT 10SM BKN065 23/19 A3013 RMK AO2 RAB03E22 SLP197 P0000
 T02280189=
KMTW 110456Z AUTO 03005KT 10SM CLR 20/14 A3016 RMK AO2 SLP209 T02000144
 402890156=
KMWC 110455Z AUTO 01007KT 10SM SCT055 22/17 A3012 RMK AO2=
KOEO 110455Z AUTO 00000KT 10SM CLR 17/16 A3024 RMK AO2 T01690155=
KOSH 110453Z AUTO 06010G16KT 10SM CLR 22/15 A3016 RMK AO2 SLP198 T02170150=
KOVS 110453Z AUTO 00000KT 10SM SCT043 BKN050 21/21 A3015 RMK AO2 SLP205
 T02110206=
KPBH 110455Z AUTO 00000KT 10SM CLR 12/12 A3021 RMK AO2 T01220122=
KPDC 110455Z AUTO 00000KT 10SM BKN043 BKN055 BKN070 22/19 A3014 RMK AO2
 T02150193=
KRAC 110453Z AUTO 27006KT 10SM SCT060 BKN080 OVC095 24/18 A3012 RMK AO2 SLP193
 T02390183=
KRHI 110453Z AUTO 00000KT 10SM CLR 12/10 A3021 RMK AO2 SLP229 T01170100=
KRPD 110455Z AUTO 00000KT 10SM 15/14 A3022 RMK AO2 T01470140=
KRRL 110455Z AUTO 00000KT 10SM CLR 12/11 A3019 RMK AO2 T01150110 TSNO=
KRYV 110455Z AUTO 34004KT 10SM CLR 22/18 A3012 RMK AO2 T02150182=
KSBM 110453Z AUTO 03010KT 10SM SCT065 20/17 A3015 RMK AO2 SLP204 T02000167=
KSTE 110455Z AUTO 00000KT 10SM CLR 18/10 A3019 RMK AO2 T01770100=
KSUE 110456Z AUTO 06005KT 10SM CLR 19/12 A3016 RMK AO2 SLP211 T01890122=
KSUW 110455Z AUTO 36003KT 10SM CLR 17/10 A3022 RMK AO2 T01650096=
KUES 110455Z AUTO 34004KT 10SM CLR 21/17 A3013 RMK AO2=
KUNU 110455Z AUTO 02008KT 10SM SCT060 BKN070 21/17 A3015 RMK AO2 T02100168=
KVOK 110456Z 00000KT 10SM SCT055 18/15 A3016 RMK AO2A SLP212=